»·PEaware :: N7744S KBFL-KWHP

N7744S :: KBFL-KWHP

FLIGHT INFORMATION

Flight Status: Arrived
Operator: Privately registered:
United States
More flights under this callsign
Pilot: Anonymous 45453 (45453)
Aircraft: CESSNA 172 SKYHAWK
(C172)
More flights by this aircraft type
Origin: KBFL Meadows
United States
Destination: KWHP Whiteman
United States
More flights between these airports :: More routes between these airports
Route:
File this flight plan on PilotEdge
Remarks:
Altitude:
(Current/Filed)
7,500ft
Speed:
(Current/Filed)
0kts
Departed: 26-Oct-23 03:38 PM
Arrived: 26-Oct-23 04:29 PM
Distance/Time
Traveled:
77nm/0:51
Distance/Time
To Go:
Arrived

Flight Plot

Page will automatically refresh every two minutes.


Map Options




Map Legend


Flown Route
Filed Route
Departure Airport
Arrival Airport
Navaid (VOR, NDB)
Fix

Horizontal Profiles

Position Reports

Time Latitude Longitude Heading Altitude Ground
Speed
26-Oct-23 15:30 35.429901 -119.046526 322 496ft 0kts
26-Oct-23 15:31 35.429901 -119.046526 322 496ft 0kts
26-Oct-23 15:32 35.429863 -119.046935 214 495ft 13kts
26-Oct-23 15:33 35.426048 -119.044532 122 481ft 17kts
26-Oct-23 15:34 35.425504 -119.044712 317 479ft 0kts
26-Oct-23 15:35 35.425504 -119.044712 317 479ft 0kts
26-Oct-23 15:36 35.425766 -119.044994 271 479ft 0kts
26-Oct-23 15:37 35.428648 -119.049943 312 490ft 76kts
26-Oct-23 15:38 35.443539 -119.070077 318 1247ft 82kts
26-Oct-23 15:39 35.446397 -119.094649 240 1992ft 80kts
26-Oct-23 15:40 35.430646 -119.112029 166 2579ft 95kts
26-Oct-23 15:41 35.402538 -119.107302 168 3010ft 102kts
26-Oct-23 15:42 35.372777 -119.103881 188 3394ft 102kts
26-Oct-23 15:43 35.343268 -119.101169 160 3550ft 119kts
26-Oct-23 15:44 35.313503 -119.091653 177 4069ft 92kts
26-Oct-23 15:45 35.291647 -119.075952 117 4616ft 87kts
26-Oct-23 15:46 35.286339 -119.047270 88 5225ft 87kts
26-Oct-23 15:47 35.276780 -119.019614 143 5762ft 92kts
26-Oct-23 15:48 35.255065 -119.004708 154 6365ft 91kts
26-Oct-23 15:49 35.231983 -118.992575 155 6987ft 90kts
26-Oct-23 15:50 35.213399 -118.972033 129 7452ft 91kts
26-Oct-23 15:51 35.188314 -118.960371 145 7557ft 96kts
26-Oct-23 15:52 35.159020 -118.957120 172 7402ft 107kts
26-Oct-23 15:53 35.130837 -118.945803 149 7437ft 107kts
26-Oct-23 15:54 35.102064 -118.936790 168 7455ft 108kts
26-Oct-23 15:55 35.072471 -118.930723 161 7493ft 108kts
26-Oct-23 15:56 35.043873 -118.919875 154 7533ft 107kts
26-Oct-23 15:57 35.015808 -118.906856 159 7537ft 109kts
26-Oct-23 15:58 34.988104 -118.893316 171 7567ft 108kts
26-Oct-23 15:59 34.958502 -118.886477 168 7574ft 110kts
26-Oct-23 16:00 34.929539 -118.869983 154 7365ft 116kts
26-Oct-23 16:01 34.904569 -118.847654 134 7349ft 108kts
26-Oct-23 16:02 34.885333 -118.819880 124 7402ft 105kts
26-Oct-23 16:03 34.862093 -118.823835 200 7469ft 98kts
26-Oct-23 16:04 34.833415 -118.822412 159 7650ft 109kts
26-Oct-23 16:05 34.804205 -118.809987 164 7649ft 111kts
26-Oct-23 16:06 34.773902 -118.798097 151 7540ft 112kts
26-Oct-23 16:07 34.747361 -118.777818 147 7534ft 111kts
26-Oct-23 16:08 34.722043 -118.755685 149 7535ft 111kts
26-Oct-23 16:09 34.692578 -118.744159 166 7538ft 111kts
26-Oct-23 16:10 34.663156 -118.732454 147 7526ft 112kts
26-Oct-23 16:11 34.635828 -118.714518 151 7542ft 112kts
26-Oct-23 16:12 34.607549 -118.698867 154 7556ft 111kts
26-Oct-23 16:13 34.579423 -118.683325 161 7256ft 111kts
26-Oct-23 16:14 34.551772 -118.666840 150 6747ft 111kts
26-Oct-23 16:15 34.524098 -118.649981 156 6265ft 110kts
26-Oct-23 16:16 34.496939 -118.632849 151 5783ft 110kts
26-Oct-23 16:17 34.472414 -118.611027 138 5332ft 109kts
26-Oct-23 16:18 34.451753 -118.584543 136 4879ft 108kts
26-Oct-23 16:19 34.428823 -118.560984 141 4448ft 107kts
26-Oct-23 16:20 34.404509 -118.539924 142 4031ft 107kts
26-Oct-23 16:21 34.382240 -118.516285 137 3622ft 106kts
26-Oct-23 16:22 34.358861 -118.499884 147 3405ft 92kts
26-Oct-23 16:23 34.335046 -118.488749 171 3103ft 107kts
26-Oct-23 16:24 34.311454 -118.467468 136 2573ft 108kts
26-Oct-23 16:25 34.293495 -118.447457 138 2072ft 85kts
26-Oct-23 16:26 34.277520 -118.431613 138 1510ft 78kts
26-Oct-23 16:27 34.261768 -118.416056 140 1006ft 62kts
26-Oct-23 16:28 34.258050 -118.411497 333 983ft 0kts
26-Oct-23 16:29 34.259891 -118.413058 44 994ft 7kts

Navigation Log

Ident Type
Flight plan parsing failed, navigation log unavailable